Tiempo atmosférico en la estación meteorológica de Almendralejo, Badajoz (371 m.)



Fecha
DESCASC
Temp. máxima en grados centígrados (hora)
DESCASC
Temp. mínima en grados centígrados (hora)
DESCASC
Temp. media en grados centígrados
DESCASC
Racha de viento máxima en m/sg (hora)
DESCASC
Velocidad máxima media en intervalos de 10 minutos(hora)
DESCASC
Precipitaciones diarias en mm
DESCASC
Precipitaciones de 00:00 a 06:00 en mm
DESCASC
Precipitaciones de 06:00 a 12:00 en mm
DESCASC
Precipitaciones de 12:00 a 18:00 en mm
DESCASC
Precipitaciones de 18:00 a 24:00 en mm
DESCASC
18-01-2018 14.1 (17:20) 2 (08:40) 8.1 6.39 (16:20) 4.17 (16:00) 0.2 0 0.2 0 0
17-01-2018 11.6 (16:10) 6.1 (23:50) 8.9 6.94 (02:00) 4.44 (02:10) 0 0 0 0 0
16-01-2018 11.4 (17:20) 3.8 (08:20) 7.6 6.94 (11:50) 5 (22:00) 0 0 0 0 0
15-01-2018 10.9 (15:50) 0.5 (08:30) 5.7 3.33 (15:10) 2.22 (04:40) 0 0 0 0 0
14-01-2018 9 (16:20) 3.7 (00:00) 6.4 6.39 (11:50) 4.44 (14:50) 2 1.2 0.6 0.2 0
13-01-2018 11.2 (15:50) 4 (00:00) 7.6 13.89 (15:50) 8.89 (15:40) 6.4 0 5.8 0.6 0
12-01-2018 10.7 (15:10) 0.3 (00:00) 5.5 3.89 (12:20) 2.78 (22:20) 0 0 0 0 0
11-01-2018 12.2 (15:50) 4.5 (00:00) 8.3 12.22 (16:00) 8.33 (16:00) 0 0 0 0 0
10-01-2018 13.7 (15:40) 6.7 (00:00) 10.2 13.33 (16:40) 10 (15:10) 2 0.4 0 1.6 0
09-01-2018 10.1 (21:40) 0.7 (00:00) 5.4 10.28 (13:40) 7.22 (13:40) 1.4 0 0 1.2 0.2
08-01-2018 8.2 (15:10) 2.9 (00:00) 5.5 6.11 (13:40) 3.61 (12:50) 4 4 0 0 0
07-01-2018 7.2 (14:20) 2.5 (00:00) 4.8 8.06 (14:30) 5.56 (00:50) 2.8 0 0 0.8 2
06-01-2018 8.8 (16:30) 2.8 (00:00) 5.8 11.94 (17:20) 7.78 (17:20) 0.2 0.2 0 0 0
05-01-2018 13.1 (14:30) 7.2 (00:00) 10.2 12.78 (14:40) 9.44 (13:00) 13.4 0 0.6 5.8 7
04-01-2018 15.2 (15:40) 11.7 (21:40) 13.4 7.22 (12:20) 5 (17:40) 0 0 0 0 0
03-01-2018 13.6 (17:10) 10.8 (00:00) 12.2 5.83 (09:20) 3.89 (09:20) 0 0 0 0 0
02-01-2018 13.9 (15:10) 4.9 (00:00) 9.4 9.72 (14:10) 6.11 (14:10) 0 0 0 0 0
01-01-2018 13.1 (15:50) 2.3 (00:00) 7.7 7.5 (16:10) 5 (16:10) 0 0 0 0 0
31-12-2017 15.1 (14:20) 7.3 (00:00) 11.2 17.22 (17:00) 10.56 (17:00) 0.4 0 0 0.4 0
30-12-2017 15.8 (15:40) 8.7 (00:00) 12.3 4.17 (15:50) 2.5 (23:50) 0 0 0 0 0
29-12-2017 15.4 (13:20) 12.1 (00:00) 13.8 10.83 (11:50) 7.22 (11:50) 0.2 0 0.2 0 0
28-12-2017 15.3 (14:20) 10.2 (00:00) 12.8 15.83 (13:30) 10 (13:30) 0 0 0 0 0
27-12-2017 11.9 (14:40) 9.4 (00:00) 10.6 18.06 (04:40) 11.67 (01:40) 8.4 8 0.4 0 0
26-12-2017 11 (23:40) 7.2 (00:00) 9.1 16.11 (23:40) 11.39 (23:59) 1.8 1.8 0 0 0
25-12-2017 14.1 (14:10) 6 (00:00) 10.1 9.44 (14:20) 6.67 (16:20) 0 0 0 0 0
24-12-2017 14.7 (15:10) 3.7 (00:00) 9.2 5.28 (13:50) 4.17 (22:40) 0 0 0 0 0
23-12-2017 14.7 (15:50) 0.9 (00:00) 7.8 5.56 (16:00) 3.61 (16:10) 0 0 0 0 0
22-12-2017 14.6 (15:50) 3.7 (00:00) 9.2 5 (13:50) 3.33 (13:50) 0 0 0 0 0
21-12-2017 14.7 (15:10) 1.6 (00:00) 8.1 5.28 (16:40) 3.33 (16:40) 0 0 0 0 0

Gráficas

Temp. máximas Temp. mínimas Temp. medias Precipitaciones Rachas de viento máximas Velocidades máximas media en intervalos de 10 minutos

Datos horarios

Fecha y hora oficial Temperatura (ºC) Velocidad del viento (km/h) Dirección del viento Racha (km/h) Dirección de racha Precipitación (mm) Presión (hPa) Tendencia (hPa) Humedad (%)
2018-01-19 23:00:00 8.7 11 Oeste 13 Oeste 0 -- -- 78
2018-01-19 22:00:00 10.4 8 Noroeste 13 Noroeste 0 -- -- 73
2018-01-19 21:00:00 10 7 Oeste 10 Oeste 0 -- -- 75
2018-01-19 20:00:00 10.6 7 Oeste 9 Oeste 0 -- -- 73
2018-01-19 19:00:00 13.1 4 Oeste 10 Noroeste 0 -- -- 64
2018-01-19 18:00:00 14.2 9 Noroeste 21 Noroeste 0 -- -- 61
2018-01-19 17:00:00 14.8 10 Noroeste 19 Noroeste 0 -- -- 58
2018-01-19 16:00:00 14.6 11 Noroeste 19 Noroeste 0 -- -- 61
2018-01-19 15:00:00 14.5 8 Noroeste 16 Noroeste 0 -- -- 62
2018-01-19 14:00:00 13.4 4 Norte 9 Noroeste 0 -- -- 64
2018-01-19 13:00:00 11.5 2 Nordeste 14 Norte 0 -- -- 72
2018-01-19 12:00:00 9.7 10 Norte 15 Norte 0 -- -- 75
2018-01-19 11:00:00 8 3 Oeste 6 Sudeste 0 -- -- 80
2018-01-19 10:00:00 5.7 0 Calma 7 Noroeste 0 -- -- 85
2018-01-19 09:00:00 4.4 4 Oeste 10 Noroeste 0 -- -- 89
2018-01-19 08:00:00 4.5 3 Oeste 7 Noroeste 0 -- -- 89
2018-01-19 07:00:00 2.6 5 Sur 9 Sudeste 0 -- -- 93
2018-01-19 06:00:00 4.4 4 Oeste 8 Oeste 0 -- -- 89
2018-01-19 05:00:00 4.9 4 Oeste 12 Noroeste 0 -- -- 86
2018-01-19 04:00:00 5.1 6 Oeste 7 Oeste 0 -- -- 88
2018-01-19 03:00:00 5.5 5 Oeste 9 Sudoeste 0 -- -- 88
2018-01-19 02:00:00 5.5 8 Oeste 10 Sudoeste 0 -- -- 87
2018-01-19 01:00:00 5.9 8 Oeste 10 Oeste 0 -- -- 87
2018-01-19 00:00:00 7.5 4 Oeste 10 Oeste 0 -- -- 81
2018-01-18 23:00:00 8.5 9 Noroeste 13 Noroeste 0 -- -- 76
2018-01-18 22:00:00 9.3 8 Noroeste 9 Noroeste 0 -- -- 74
2018-01-18 21:00:00 10.8 4 Noroeste 9 Sur 0 -- -- 64
2018-01-18 20:00:00 10 5 Sur 10 Sur 0 -- -- 69
2018-01-18 19:00:00 11.6 4 Nordeste 17 Nordeste 0 -- -- 64
2018-01-18 18:00:00 13.4 10 Nordeste 18 Nordeste 0 -- -- 59
2018-01-18 17:00:00 14 13 Nordeste 23 Nordeste 0 -- -- 60
2018-01-18 16:00:00 13.9 15 Nordeste 22 Nordeste 0 -- -- 62
2018-01-18 15:00:00 13.2 11 Nordeste 20 Nordeste 0 -- -- 67
2018-01-18 14:00:00 12 12 Nordeste 17 Norte 0 -- -- 71
2018-01-18 13:00:00 10.6 9 Nordeste 13 Norte 0 -- -- 81
2018-01-18 12:00:00 9.3 6 Nordeste 10 Nordeste 0 -- -- 80
2018-01-18 11:00:00 7.1 4 Sudeste 8 Sudeste 0 -- -- 95
2018-01-18 10:00:00 5.2 4 Este 8 Sudeste 0 -- -- 100
2018-01-18 09:00:00 2.8 6 Sudeste 12 Este 0 -- -- 100
2018-01-18 08:00:00 3.5 5 Este 9 Sudeste 0 -- -- 100
2018-01-18 07:00:00 4.1 6 Sudeste 9 Este 0.2 -- -- 99
2018-01-18 06:00:00 3.4 4 Sudeste 11 Este 0 -- -- 100
2018-01-18 05:00:00 5.2 10 Nordeste 15 Nordeste 0 -- -- 100
2018-01-18 04:00:00 5.5 8 Nordeste 10 Nordeste 0 -- -- 100
2018-01-18 03:00:00 5.9 8 Este 10 Este 0 -- -- 100
2018-01-18 02:00:00 5.8 4 Este 9 Este 0 -- -- 99
2018-01-18 01:00:00 6.5 8 Este 14 Nordeste 0 -- -- 100
2018-01-18 00:00:00 6.2 7 Este 10 Este 0 -- -- 99
2018-01-17 23:00:00 7 9 Este 13 Nordeste 0 -- -- 98
2018-01-17 22:00:00 8 5 Nordeste 11 Este 0 -- -- 96
2018-01-17 21:00:00 8.3 9 Nordeste 10 Nordeste 0 -- -- 94
2018-01-17 20:00:00 9 7 Este 10 Este 0 -- -- 90
2018-01-17 19:00:00 9.6 6 Este 10 Sudeste 0 -- -- 90
2018-01-17 18:00:00 11.3 4 Este 13 Este 0 -- -- 85
2018-01-17 17:00:00 11.6 7 Este 14 Este 0 -- -- 84
2018-01-17 16:00:00 11.5 5 Este 17 Este 0 -- -- 86
2018-01-17 15:00:00 10.1 9 Nordeste 17 Nordeste 0 -- -- 94
2018-01-17 14:00:00 9.3 8 Nordeste 15 Nordeste 0 -- -- 96
2018-01-17 13:00:00 10 6 Este 11 Nordeste 0 -- -- 98
2018-01-17 12:00:00 9 4 Norte 10 Noroeste 0 -- -- 100
2018-01-17 11:00:00 8.1 7 Noroeste 11 Noroeste 0 -- -- 100
2018-01-17 10:00:00 7.5 6 Oeste 15 Oeste 0 -- -- 100
2018-01-17 09:00:00 7.2 8 Oeste 18 Noroeste 0 -- -- 100
2018-01-17 08:00:00 7.4 10 Noroeste 16 Noroeste 0 -- -- 100
2018-01-17 07:00:00 8 12 Noroeste 17 Noroeste 0 -- -- 100
2018-01-17 06:00:00 8.4 10 Noroeste 17 Noroeste 0 -- -- 100
2018-01-17 05:00:00 8.9 9 Noroeste 13 Noroeste 0 -- -- 100
2018-01-17 04:00:00 9.2 6 Noroeste 19 Noroeste 0 -- -- 100
2018-01-17 03:00:00 9.4 9 Noroeste 25 Noroeste 0 -- -- 100
2018-01-17 02:00:00 9.7 15 Noroeste 25 Noroeste 0 -- -- 100
2018-01-17 01:00:00 9.9 13 Noroeste 22 Noroeste 0 -- -- 100
2018-01-17 00:00:00 10.1 13 Noroeste 22 Noroeste 0 -- -- 100
2018-01-16 23:00:00 10.3 13 Noroeste 22 Noroeste 0 -- -- 99
2018-01-16 22:00:00 10.4 18 Noroeste 24 Noroeste 0 -- -- 98
2018-01-16 21:00:00 10.5 11 Noroeste 17 Noroeste 0 -- -- 97
2018-01-16 20:00:00 10.5 11 Noroeste 19 Noroeste 0 -- -- 97
2018-01-16 19:00:00 10.8 9 Oeste 25 Noroeste 0 -- -- 96
2018-01-16 18:00:00 11.1 8 Oeste 18 Noroeste 0 -- -- 94
2018-01-16 17:00:00 11.3 7 Oeste 15 Oeste 0 -- -- 93
2018-01-16 16:00:00 10.6 9 Oeste 19 Oeste 0 -- -- 93
2018-01-16 15:00:00 10 10 Oeste 23 Noroeste 0 -- -- 94
2018-01-16 14:00:00 9 12 Noroeste 21 Noroeste 0 -- -- 96
2018-01-16 13:00:00 8.2 12 Noroeste 21 Noroeste 0 -- -- 96
2018-01-16 12:00:00 9.6 10 Oeste 25 Noroeste 0 -- -- 85
2018-01-16 11:00:00 8.6 7 Oeste 13 Noroeste 0 -- -- 80
2018-01-16 10:00:00 6.1 6 Sudoeste 9 Oeste 0 -- -- 83
2018-01-16 09:00:00 4.2 2 Oeste 8 Sur 0 -- -- 83
2018-01-16 08:00:00 4.2 5 Sudoeste 6 Sur 0 -- -- 83
2018-01-16 07:00:00 4.7 3 Sudoeste 10 Sudoeste 0 -- -- 82
2018-01-16 06:00:00 4.7 10 Sudoeste 13 Sudoeste 0 -- -- 84
2018-01-16 05:00:00 5 6 Oeste 8 Oeste 0 -- -- 78
2018-01-16 04:00:00 4.8 7 Sudoeste 11 Sudoeste 0 -- -- 78
2018-01-16 03:00:00 4.7 8 Sudoeste 10 Sudoeste 0 -- -- 79
2018-01-16 02:00:00 4.6 8 Sudoeste 11 Sudoeste 0 -- -- 76
2018-01-16 01:00:00 4.3 9 Sudoeste 10 Sudoeste 0 -- -- 79
2018-01-16 00:00:00 4.7 7 Sudoeste 10 Sudoeste 0 -- -- 81
2018-01-15 23:00:00 5 5 Sudoeste 8 Oeste 0 -- -- 79
2018-01-15 22:00:00 6 5 Sudoeste 7 Sudoeste 0 -- -- 76
2018-01-15 21:00:00 6.8 3 Oeste 9 Noroeste 0 -- -- 76
2018-01-15 20:00:00 7.7 6 Noroeste 8 Noroeste 0 -- -- 74
2018-01-15 19:00:00 8.7 0 Calma 4 Nordeste 0 -- -- 67
2018-01-15 18:00:00 10.1 4 Norte 10 Norte 0 -- -- 61
2018-01-15 17:00:00 10.6 5 Norte 11 Nordeste 0 -- -- 60
2018-01-15 16:00:00 10.8 4 Norte 12 Nordeste 0 -- -- 63
2018-01-15 15:00:00 10.3 5 Norte 10 Nordeste 0 -- -- 64
2018-01-15 14:00:00 9.4 5 Norte 9 Nordeste 0 -- -- 68
2018-01-15 13:00:00 8 3 Norte 9 Norte 0 -- -- 82
2018-01-15 12:00:00 6.5 3 Nordeste 6 Noroeste 0 -- -- 86
2018-01-15 11:00:00 4.7 3 Noroeste 6 Noroeste 0 -- -- 90
2018-01-15 10:00:00 2.9 5 Noroeste 6 Noroeste 0 -- -- 96
2018-01-15 09:00:00 0.9 3 Oeste 6 Sudoeste 0 -- -- 100
2018-01-15 08:00:00 0.9 4 Oeste 6 Oeste 0 -- -- 98
2018-01-15 07:00:00 1.3 2 Oeste 6 Norte 0 -- -- 95
2018-01-15 06:00:00 2 6 Norte 9 Noroeste 0 -- -- 96
2018-01-15 05:00:00 1.8 6 Noroeste 10 Noroeste 0 -- -- 95
2018-01-15 04:00:00 2.4 6 Nordeste 6 Nordeste 0 -- -- 96
2018-01-15 03:00:00 2.5 4 Norte 6 Norte 0 -- -- 91
2018-01-15 02:00:00 2.8 5 Norte 6 Norte 0 -- -- 89
2018-01-15 01:00:00 3.1 3 Este 8 Norte 0 -- -- 90
2018-01-15 00:00:00 3.7 5 Norte 10 Norte 0 -- -- 86
2018-01-14 23:00:00 4.1 8 Norte 10 Norte 0 -- -- 86
2018-01-14 22:00:00 4 6 Norte 12 Norte 0 -- -- 87
2018-01-14 21:00:00 5.2 10 Norte 11 Norte 0 -- -- 84
2018-01-14 20:00:00 6 6 Noroeste 14 Norte 0 -- -- 82
2018-01-14 19:00:00 6.7 11 Norte 18 Norte 0 -- -- 80
2018-01-14 18:00:00 8.2 9 Norte 16 Noroeste 0 -- -- 81
2018-01-14 17:00:00 8.6 11 Noroeste 21 Noroeste 0 -- -- 76
2018-01-14 16:00:00 8.6 10 Noroeste 18 Norte 0 -- -- 73
2018-01-14 15:00:00 8.7 12 Norte 22 Norte 0 -- -- 78
2018-01-14 14:00:00 8.3 13 Noroeste 19 Noroeste 0.2 -- -- 79
2018-01-14 13:00:00 7.4 15 Noroeste 23 Norte 0 -- -- 84
2018-01-14 12:00:00 7.4 14 Noroeste 23 Noroeste 0 -- -- 90
2018-01-14 11:00:00 6.2 12 Noroeste 21 Noroeste 0 -- -- 98
2018-01-14 10:00:00 5.7 12 Noroeste 17 Noroeste 0 -- -- 99
2018-01-14 09:00:00 6.1 12 Noroeste 21 Noroeste 0 -- -- 98
2018-01-14 08:00:00 5.8 3 Oeste 11 Oeste 0.4 -- -- 98
2018-01-14 07:00:00 5.8 4 Sudoeste 9 Sudoeste 0.2 -- -- 97
2018-01-14 06:00:00 5.8 5 Sudoeste 10 Sudoeste 0 -- -- 98
2018-01-14 05:00:00 5.9 8 Sudoeste 12 Sudoeste 0 -- -- 98
2018-01-14 04:00:00 6 7 Oeste 12 Oeste 0 -- -- 98
2018-01-14 03:00:00 6.3 7 Noroeste 16 Oeste 0 -- -- 96
2018-01-14 02:00:00 6 9 Sudoeste 12 Sudoeste 0 -- -- 96
2018-01-14 01:00:00 6.2 11 Oeste 21 Oeste 1.2 -- -- 96
2018-01-14 00:00:00 5.3 10 Oeste 14 Oeste 0 -- -- 95
2018-01-13 23:00:00 4.8 9 Oeste 12 Sudoeste 0 -- -- 93
2018-01-13 22:00:00 5.5 9 Oeste 13 Oeste 0 -- -- 90
2018-01-13 21:00:00 5.3 9 Sudoeste 13 Sudoeste 0 -- -- 93
2018-01-13 20:00:00 5.8 10 Sudoeste 16 Oeste 0 -- -- 94
2018-01-13 19:00:00 6.9 7 Noroeste 46 Norte 0 -- -- 92
2018-01-13 18:00:00 9.9 11 Noroeste 28 Noroeste 0 -- -- 84
2018-01-13 17:00:00 10.4 18 Noroeste 42 Noroeste 0 -- -- 80
2018-01-13 16:00:00 10.7 31 Noroeste 50 Noroeste 0 -- -- 75
2018-01-13 15:00:00 10.5 23 Oeste 40 Oeste 0 -- -- 84
2018-01-13 14:00:00 10 27 Oeste 43 Oeste 0 -- -- 90
2018-01-13 13:00:00 7.7 16 Sudoeste 28 Sudoeste 0.6 -- -- 97
2018-01-13 12:00:00 6.9 15 Sur 25 Sur 0.6 -- -- 98
2018-01-13 11:00:00 5.9 15 Sudeste 24 Sudeste 2.6 -- -- 98
2018-01-13 10:00:00 5.4 10 Sudeste 14 Sur 1.4 -- -- 98
2018-01-13 09:00:00 5.2 5 Sur 13 Sur 1.2 -- -- 95
2018-01-13 08:00:00 5.1 11 Sur 14 Sur 0 -- -- 90
2018-01-13 07:00:00 4.5 8 Sudeste 13 Sur 0 -- -- 91
2018-01-13 06:00:00 5.1 9 Sur 12 Sur 0 -- -- 87
2018-01-13 05:00:00 4.9 10 Sudoeste 12 Sudoeste 0 -- -- 88
2018-01-13 04:00:00 4.6 6 Sur 12 Sur 0 -- -- 91
2018-01-13 03:00:00 4.2 9 Sur 12 Sur 0 -- -- 94
2018-01-13 02:00:00 4.3 10 Sudeste 11 Sudeste 0 -- -- 93
2018-01-13 01:00:00 5 9 Sur 11 Sur 0 -- -- 90
2018-01-13 00:00:00 5.2 8 Sur 11 Sur 0 -- -- 91
2018-01-12 23:00:00 4.9 8 Sur 12 Sur 0 -- -- 95
2018-01-12 22:00:00 5.1 6 Sur 8 Sudeste 0 -- -- 94
2018-01-12 21:00:00 5.5 6 Este 9 Este 0 -- -- 93
2018-01-12 20:00:00 5.6 6 Nordeste 8 Nordeste 0 -- -- 91
2018-01-12 19:00:00 6.6 5 Nordeste 8 Nordeste 0 -- -- 89
2018-01-12 18:00:00 8.3 5 Nordeste 10 Este 0 -- -- 82
2018-01-12 17:00:00 9.3 7 Nordeste 12 Este 0 -- -- 72
2018-01-12 16:00:00 9.8 6 Nordeste 11 Este 0 -- -- 72
2018-01-12 15:00:00 10.5 3 Sur 9 Sur 0 -- -- 62
2018-01-12 14:00:00 9.7 3 Sur 9 Sudeste 0 -- -- 68
2018-01-12 13:00:00 9.3 6 Sudeste 14 Sudeste 0 -- -- 71
2018-01-12 12:00:00 7.3 5 Este 11 Sudeste 0 -- -- 82
2018-01-12 11:00:00 4.9 6 Sudeste 9 Sudeste 0 -- -- 89
2018-01-12 10:00:00 2.6 6 Sudoeste 10 Sudoeste 0 -- -- 95
2018-01-12 09:00:00 0.6 7 Sur 10 Sudeste 0 -- -- 98
2018-01-12 08:00:00 1.4 6 Oeste 9 Oeste 0 -- -- 95
2018-01-12 07:00:00 2.2 4 Oeste 8 Noroeste 0 -- -- 94
2018-01-12 06:00:00 2.1 2 Oeste 6 Oeste 0 -- -- 96
2018-01-12 05:00:00 2.5 5 Oeste 9 Oeste 0 -- -- 94
2018-01-12 04:00:00 2.9 9 Oeste 9 Oeste 0 -- -- 92
2018-01-12 03:00:00 3.5 4 Oeste 12 Oeste 0 -- -- 94
2018-01-12 02:00:00 3.5 7 Oeste 13 Noroeste 0 -- -- 93
2018-01-12 01:00:00 4 6 Oeste 12 Oeste 0 -- -- 91
2018-01-12 00:00:00 4.5 9 Oeste 12 Oeste 0 -- -- 90
2018-01-11 23:00:00 5.5 8 Oeste 14 Noroeste 0 -- -- 85
2018-01-11 22:00:00 6.2 11 Noroeste 19 Oeste 0 -- -- 85
2018-01-11 21:00:00 6.3 6 Oeste 15 Noroeste 0 -- -- 84
2018-01-11 20:00:00 7.7 10 Noroeste 18 Noroeste 0 -- -- 79
2018-01-11 19:00:00 9 14 Noroeste 23 Norte 0 -- -- 73
2018-01-11 18:00:00 11 17 Norte 36 Noroeste 0 -- -- 69
2018-01-11 17:00:00 11.2 18 Noroeste 37 Noroeste 0 -- -- 69
2018-01-11 16:00:00 11.7 30 Noroeste 44 Noroeste 0 -- -- 69
2018-01-11 15:00:00 11.2 24 Noroeste 38 Noroeste 0 -- -- 74
2018-01-11 14:00:00 10.8 24 Noroeste 40 Noroeste 0 -- -- 82
2018-01-11 13:00:00 10.5 27 Noroeste 43 Noroeste 0 -- -- 87
2018-01-11 12:00:00 10 24 Noroeste 42 Noroeste 0 -- -- 88
2018-01-11 11:00:00 9 23 Noroeste 40 Oeste 0 -- -- 92
2018-01-11 10:00:00 7.2 16 Oeste 30 Noroeste 0 -- -- 94
2018-01-11 09:00:00 6.5 16 Oeste 29 Noroeste 0 -- -- 95
2018-01-11 08:00:00 6.5 13 Oeste 34 Oeste 0 -- -- 93
2018-01-11 07:00:00 6.2 13 Oeste 25 Noroeste 0 -- -- 93
2018-01-11 06:00:00 5.8 10 Oeste 19 Oeste 0 -- -- 94
2018-01-11 05:00:00 5.7 8 Oeste 21 Oeste 0 -- -- 93
2018-01-11 04:00:00 5 12 Oeste 17 Oeste 0 -- -- 95
2018-01-11 03:00:00 5.2 12 Oeste 16 Oeste 0 -- -- 95
2018-01-11 02:00:00 5.8 9 Oeste 21 Noroeste 0 -- -- 96
2018-01-11 01:00:00 6.2 9 Oeste 22 Noroeste 0 -- -- 94
2018-01-11 00:00:00 6.7 11 Noroeste 21 Oeste 0 -- -- 93
2018-01-10 23:00:00 7.3 11 Oeste 24 Noroeste 0 -- -- 90
2018-01-10 22:00:00 7.7 15 Noroeste 31 Noroeste 0 -- -- 90
2018-01-10 21:00:00 8.6 21 Noroeste 37 Noroeste 0 -- -- 85
2018-01-10 20:00:00 9.3 23 Noroeste 37 Noroeste 0 -- -- 88
2018-01-10 19:00:00 10.2 20 Noroeste 32 Noroeste 0 -- -- 89
2018-01-10 18:00:00 10.9 17 Oeste 43 Noroeste 1 -- -- 93
2018-01-10 17:00:00 12 23 Oeste 48 Oeste 0.6 -- -- 90
2018-01-10 16:00:00 13.5 26 Oeste 48 Oeste 0 -- -- 76
2018-01-10 15:00:00 13.2 33 Oeste 47 Oeste 0 -- -- 78
2018-01-10 14:00:00 12.9 24 Oeste 35 Oeste 0 -- -- 83
2018-01-10 13:00:00 12.3 22 Oeste 37 Oeste 0 -- -- 82
2018-01-10 12:00:00 10.9 13 Oeste 17 Oeste 0 -- -- 91
2018-01-10 11:00:00 9.4 8 Oeste 18 Oeste 0 -- -- 97
2018-01-10 10:00:00 8.7 13 Oeste 19 Oeste 0 -- -- 100
2018-01-10 09:00:00 8.1 9 Oeste 18 Oeste 0 -- -- 100
2018-01-10 08:00:00 8.1 9 Oeste 17 Oeste 0 -- -- 100
2018-01-10 07:00:00 7.9 10 Noroeste 20 Noroeste 0 -- -- 100
2018-01-10 06:00:00 7.8 8 Oeste 22 Noroeste 0 -- -- 100
2018-01-10 05:00:00 8 6 Noroeste 24 Noroeste 0 -- -- 100
2018-01-10 04:00:00 8.1 18 Noroeste 26 Noroeste 0 -- -- 100
2018-01-10 03:00:00 8.4 19 Noroeste 31 Noroeste 0 -- -- 100
2018-01-10 02:00:00 9.4 17 Noroeste 24 Noroeste 0.2 -- -- 100
2018-01-10 01:00:00 9.7 8 Noroeste 15 Sudoeste 0.2 -- -- 99
2018-01-10 00:00:00 9.4 10 Sudoeste 16 Sudoeste 0 -- -- 97
2018-01-09 23:00:00 9.3 12 Sudoeste 22 Sudoeste 0 -- -- 97
2018-01-09 22:00:00 10 17 Sudoeste 29 Sudoeste 0 -- -- 94
2018-01-09 21:00:00 9.8 10 Sudoeste 26 Sudoeste 0.2 -- -- 92
2018-01-09 20:00:00 8.8 3 Sur 14 Sur 0 -- -- 97
2018-01-09 19:00:00 8.4 10 Sudeste 18 Sur 0 -- -- 96
2018-01-09 18:00:00 8.3 6 Sudeste 22 Sur 0.2 -- -- 95
2018-01-09 17:00:00 8.4 14 Sur 21 Sur 0.2 -- -- 94
2018-01-09 16:00:00 8.5 15 Sur 26 Sur 0 -- -- 91
2018-01-09 15:00:00 7.9 17 Sur 30 Sur 0 -- -- 92
2018-01-09 14:00:00 7.8 23 Sudoeste 37 Sur 0.4 -- -- 93
2018-01-09 13:00:00 7.1 19 Sur 31 Sudoeste 0.4 -- -- 90
2018-01-09 12:00:00 5.1 8 Sudeste 12 Sur 0 -- -- 93
2018-01-09 11:00:00 4 9 Sudeste 14 Sudeste 0 -- -- 91
2018-01-09 10:00:00 2.8 8 Sudeste 13 Sur 0 -- -- 92
2018-01-09 09:00:00 2.2 9 Sur 13 Sur 0 -- -- 92
2018-01-09 08:00:00 1.7 11 Sur 15 Sur 0 -- -- 94
2018-01-09 07:00:00 1.3 10 Sudeste 14 Sur 0 -- -- 95
2018-01-09 06:00:00 1.3 9 Sur 12 Sur 0 -- -- 93
2018-01-09 05:00:00 1.3 9 Sur 13 Sur 0 -- -- 94
2018-01-09 04:00:00 0.8 12 Sur 14 Sur 0 -- -- 94
2018-01-09 03:00:00 1.2 9 Sur 11 Sur 0 -- -- 92
2018-01-09 02:00:00 2.6 7 Sudoeste 9 Sudoeste 0 -- -- 87
2018-01-09 01:00:00 2.9 6 Sudoeste 8 Sudoeste 0 -- -- 88
2018-01-09 00:00:00 2.9 6 Sudoeste 9 Sudoeste 0 -- -- 91
2018-01-08 23:00:00 3.2 8 Oeste 9 Oeste 0 -- -- 88
2018-01-08 22:00:00 4.6 -- -- -- -- 0 -- -- 82
2018-01-08 21:00:00 5.1 0 Calma 3 Sudeste 0 -- -- 79
2018-01-08 20:00:00 5.8 0 Calma -- -- 0 -- -- 76
2018-01-08 19:00:00 5.7 2 Sudeste 3 Este 0 -- -- 79
2018-01-08 18:00:00 7.1 3 Nordeste 16 Nordeste 0 -- -- 75
2018-01-08 17:00:00 8.1 8 Nordeste 17 Nordeste 0 -- -- 72
2018-01-08 16:00:00 7.8 5 Norte 14 Nordeste 0 -- -- 74
2018-01-08 15:00:00 7.8 6 Nordeste 16 Este 0 -- -- 75
2018-01-08 14:00:00 7 6 Este 22 Nordeste 0 -- -- 78
2018-01-08 13:00:00 6.2 10 Nordeste 20 Nordeste 0 -- -- 83
2018-01-08 12:00:00 5.6 7 Nordeste 15 Nordeste 0 -- -- 90
2018-01-08 11:00:00 4.9 7 Nordeste 14 Nordeste 0 -- -- 94
2018-01-08 10:00:00 3.8 10 Este 19 Este 0 -- -- 96
2018-01-08 09:00:00 3.2 8 Este 15 Este 0 -- -- 97
2018-01-08 08:00:00 3.4 10 Este 18 Sudeste 0 -- -- 95
2018-01-08 07:00:00 3.9 9 Este 15 Este 0 -- -- 99
2018-01-08 06:00:00 3.5 4 Este 6 Este 0 -- -- 99
2018-01-08 05:00:00 3.4 0 Calma 4 Sur 0.2 -- -- 97
2018-01-08 04:00:00 3.5 3 Sudoeste 5 Oeste 0.6 -- -- 96
2018-01-08 03:00:00 3.8 4 Noroeste 11 Noroeste 0.8 -- -- 97
2018-01-08 02:00:00 4.3 5 Noroeste 9 Noroeste 1.2 -- -- 96
2018-01-08 01:00:00 4.8 5 Noroeste 8 Noroeste 1.2 -- -- 98
2018-01-08 00:00:00 4.9 4 Noroeste 11 Noroeste 0.6 -- -- 98
2018-01-07 23:00:00 4.9 4 Oeste 10 Noroeste 0.6 -- -- 97
2018-01-07 22:00:00 5.2 8 Noroeste 12 Noroeste 0.4 -- -- 95
2018-01-07 21:00:00 5.2 8 Sudoeste 11 Oeste 0 -- -- 93
2018-01-07 20:00:00 5.3 5 Oeste 8 Oeste 0 -- -- 93
2018-01-07 19:00:00 5.3 5 Noroeste 14 Norte 0.4 -- -- 91
2018-01-07 18:00:00 5.6 9 Norte 17 Noroeste 0.2 -- -- 91
2018-01-07 17:00:00 5.9 6 Norte 24 Noroeste 0.6 -- -- 89
2018-01-07 16:00:00 6.9 15 Norte 25 Norte 0 -- -- 77
2018-01-07 15:00:00 6.5 16 Noroeste 29 Noroeste 0 -- -- 80
2018-01-07 14:00:00 7.1 17 Noroeste 25 Noroeste 0 -- -- 74
2018-01-07 13:00:00 6.6 16 Noroeste 28 Norte 0 -- -- 73
2018-01-07 12:00:00 5.9 18 Noroeste 27 Noroeste 0 -- -- 78
2018-01-07 11:00:00 4.8 16 Noroeste 25 Noroeste 0 -- -- 81
2018-01-07 10:00:00 3.7 13 Noroeste 23 Noroeste 0 -- -- 86
2018-01-07 09:00:00 3.2 14 Noroeste 23 Noroeste 0 -- -- 87
2018-01-07 08:00:00 3.5 13 Noroeste 24 Noroeste 0 -- -- 85
2018-01-07 07:00:00 3.4 15 Noroeste 24 Noroeste 0 -- -- 87
2018-01-07 06:00:00 3.3 17 Noroeste 26 Noroeste 0 -- -- 89
2018-01-07 05:00:00 3.4 17 Noroeste 28 Noroeste 0 -- -- 90
2018-01-07 04:00:00 3.4 18 Noroeste 28 Oeste 0 -- -- 90
2018-01-07 03:00:00 2.8 15 Noroeste 25 Noroeste 0 -- -- 92
2018-01-07 02:00:00 2.5 15 Noroeste 25 Noroeste 0 -- -- 91
2018-01-07 01:00:00 2.6 18 Noroeste 27 Oeste 0 -- -- 88
2018-01-07 00:00:00 2.8 12 Oeste 23 Noroeste 0 -- -- 87
2018-01-06 23:00:00 3.6 18 Noroeste 28 Noroeste 0 -- -- 82
2018-01-06 22:00:00 3.8 16 Noroeste 28 Noroeste 0 -- -- 82
2018-01-06 21:00:00 4.4 18 Noroeste 23 Noroeste 0 -- -- 77
2018-01-06 20:00:00 5.1 12 Noroeste 28 Noroeste 0 -- -- 71
2018-01-06 19:00:00 6.6 21 Noroeste 37 Noroeste 0 -- -- 59
2018-01-06 18:00:00 7.9 18 Noroeste 43 Noroeste 0 -- -- 58
2018-01-06 17:00:00 8.8 24 Noroeste 39 Noroeste 0 -- -- 52
2018-01-06 16:00:00 8.3 26 Noroeste 40 Noroeste 0 -- -- 63
2018-01-06 15:00:00 8.5 27 Noroeste 39 Noroeste 0 -- -- 66
2018-01-06 14:00:00 8.1 23 Noroeste 37 Noroeste 0 -- -- 70
2018-01-06 13:00:00 7.3 23 Noroeste 37 Noroeste 0 -- -- 73
2018-01-06 12:00:00 6.4 21 Noroeste 34 Noroeste 0 -- -- 81
2018-01-06 11:00:00 5.7 20 Noroeste 29 Noroeste 0 -- -- 88
2018-01-06 10:00:00 5.1 16 Noroeste 24 Noroeste 0 -- -- 92
2018-01-06 09:00:00 5.1 14 Noroeste 18 Noroeste 0 -- -- 93
2018-01-06 08:00:00 5.4 12 Noroeste 22 Noroeste 0 -- -- 92
2018-01-06 07:00:00 5.7 12 Noroeste 18 Noroeste 0 -- -- 93
2018-01-06 06:00:00 6.2 13 Noroeste 20 Noroeste 0 -- -- 97
2018-01-06 05:00:00 6.9 13 Noroeste 22 Norte 0 -- -- 99
2018-01-06 04:00:00 7.3 10 Norte 18 Noroeste 0 -- -- 100
2018-01-06 03:00:00 7.4 8 Norte 19 Norte 0 -- -- 100
2018-01-06 02:00:00 7.5 14 Norte 19 Norte 0 -- -- 100
2018-01-06 01:00:00 7.4 5 Noroeste 10 Noroeste 0.2 -- -- 99
2018-01-06 00:00:00 7.2 4 Este 24 Norte 1 -- -- 99
2018-01-05 23:00:00 7.3 20 Norte 45 Norte 3.4 -- -- 98
2018-01-05 22:00:00 9.2 12 Oeste 18 Oeste 0.6 -- -- 98
2018-01-05 21:00:00 9.3 9 Sudoeste 20 Sudoeste 1 -- -- 98
2018-01-05 20:00:00 9.6 17 Sudoeste 23 Sudoeste 0.2 -- -- 96
2018-01-05 19:00:00 9.7 9 Sur 14 Sudoeste 0.8 -- -- 97
2018-01-05 18:00:00 10 9 Sudoeste 21 Sudoeste 1.8 -- -- 96
2018-01-05 17:00:00 10.5 17 Sudoeste 25 Oeste 1.6 -- -- 96
2018-01-05 16:00:00 11 19 Oeste 40 Sudoeste 2.2 -- -- 92
2018-01-05 15:00:00 12.8 27 Sudoeste 46 Sudoeste 0 -- -- 79
2018-01-05 14:00:00 12.7 31 Sudoeste 44 Sudoeste 0 -- -- 79
2018-01-05 13:00:00 12.5 34 Sudoeste 44 Sudoeste 0.2 -- -- 79
2018-01-05 12:00:00 12.1 30 Sudoeste 41 Sudoeste 0 -- -- 82
2018-01-05 11:00:00 11.3 25 Sudoeste 35 Sudoeste 0 -- -- 88
2018-01-05 10:00:00 10.3 20 Sudoeste 29 Sur 0 -- -- 94
2018-01-05 09:00:00 9.6 17 Sur 35 Sudoeste 0.4 -- -- 98
2018-01-05 08:00:00 9.6 20 Oeste 31 Oeste 0.2 -- -- 97
2018-01-05 07:00:00 9.9 16 Sudoeste 27 Sudoeste 0 -- -- 96
2018-01-05 06:00:00 10.8 16 Oeste 35 Oeste 0 -- -- 85
2018-01-05 05:00:00 10.7 8 Oeste 26 Oeste 0 -- -- 88
2018-01-05 04:00:00 10.3 7 Oeste 28 Noroeste 0 -- -- 96
2018-01-05 03:00:00 11.4 5 Oeste 14 Sudoeste 0 -- -- 89
2018-01-05 02:00:00 11.7 12 Oeste 21 Oeste 0 -- -- 87
2018-01-05 01:00:00 11.9 14 Oeste 22 Oeste 0 -- -- 89
2018-01-05 00:00:00 12.2 12 Oeste 21 Oeste 0 -- -- 92
2018-01-04 23:00:00 11.9 8 Oeste 13 Sudoeste 0 -- -- 91
2018-01-04 22:00:00 11.7 9 Sudoeste 13 Sudoeste 0 -- -- 90
2018-01-04 21:00:00 12.1 7 Sudoeste 17 Sudoeste 0 -- -- 89
2018-01-04 20:00:00 12.6 10 Oeste 14 Oeste 0 -- -- 90
2018-01-04 19:00:00 13 9 Oeste 18 Noroeste 0 -- -- 89
2018-01-04 18:00:00 13.4 14 Noroeste 24 Noroeste 0 -- -- 86
2018-01-04 17:00:00 14.2 13 Noroeste 21 Noroeste 0 -- -- 85
2018-01-04 16:00:00 14.9 9 Noroeste 18 Noroeste 0 -- -- 79
2018-01-04 15:00:00 14.7 12 Noroeste 22 Noroeste 0 -- -- 78
2018-01-04 14:00:00 14.4 14 Noroeste 25 Noroeste 0 -- -- 79
2018-01-04 13:00:00 14.1 13 Noroeste 26 Noroeste 0 -- -- 84
2018-01-04 12:00:00 13.7 14 Noroeste 23 Noroeste 0 -- -- 86
2018-01-04 11:00:00 13 9 Oeste 17 Oeste 0 -- -- 89
2018-01-04 10:00:00 12.1 9 Oeste 17 Oeste 0 -- -- 92
2018-01-04 09:00:00 11.9 12 Noroeste 20 Noroeste 0 -- -- 94
2018-01-04 08:00:00 12.1 10 Oeste 19 Noroeste 0 -- -- 93
2018-01-04 07:00:00 12 12 Noroeste 20 Noroeste 0 -- -- 96
2018-01-04 06:00:00 12.3 8 Noroeste 12 Noroeste 0 -- -- 97
2018-01-04 05:00:00 12.4 7 Noroeste 13 Noroeste 0 -- -- 98
2018-01-04 04:00:00 12.6 8 Noroeste 17 Noroeste 0 -- -- 98
2018-01-04 03:00:00 12.8 10 Noroeste 17 Oeste 0 -- -- 98
2018-01-04 02:00:00 12.7 8 Noroeste 13 Noroeste 0 -- -- 97
2018-01-04 01:00:00 12.8 5 Noroeste 10 Noroeste 0 -- -- 97
2018-01-04 00:00:00 12.8 4 Oeste 12 Noroeste 0 -- -- 95
2018-01-03 23:00:00 13 8 Noroeste 14 Noroeste 0 -- -- 94
2018-01-03 22:00:00 13.2 10 Noroeste 14 Oeste 0 -- -- 93
2018-01-03 21:00:00 13.3 6 Oeste 13 Oeste 0 -- -- 92
2018-01-03 20:00:00 13.3 5 Oeste 10 Oeste 0 -- -- 93
2018-01-03 19:00:00 13.3 5 Oeste 8 Oeste 0 -- -- 92
2018-01-03 18:00:00 13.6 4 Oeste 9 Noroeste 0 -- -- 91
2018-01-03 17:00:00 13.5 5 Noroeste 13 Noroeste 0 -- -- 90
2018-01-03 16:00:00 13.2 7 Noroeste 12 Noroeste 0 -- -- 92
2018-01-03 15:00:00 12.1 10 Noroeste 17 Noroeste 0 -- -- 98
2018-01-03 14:00:00 12 9 Noroeste 17 Noroeste 0 -- -- 98
2018-01-03 13:00:00 11.6 9 Noroeste 15 Noroeste 0 -- -- 100
2018-01-03 12:00:00 11.2 6 Noroeste 16 Noroeste 0 -- -- 100
2018-01-03 11:00:00 11.1 11 Noroeste 19 Noroeste 0 -- -- 100
2018-01-03 10:00:00 11.1 9 Noroeste 21 Noroeste 0 -- -- 100
2018-01-03 09:00:00 11 12 Noroeste 20 Noroeste 0 -- -- 100
2018-01-03 08:00:00 10.8 7 Noroeste 12 Noroeste 0 -- -- 99
2018-01-03 07:00:00 11 5 Oeste 12 Oeste 0 -- -- 98
2018-01-03 06:00:00 11 5 Oeste 12 Noroeste 0 -- -- 97
2018-01-03 05:00:00 11.2 8 Noroeste 12 Noroeste 0 -- -- 95
2018-01-03 04:00:00 11.5 7 Noroeste 13 Noroeste 0 -- -- 94
2018-01-03 03:00:00 11.5 6 Oeste 10 Noroeste 0 -- -- 93
2018-01-03 02:00:00 11.6 5 Oeste 15 Noroeste 0 -- -- 92
2018-01-03 01:00:00 11.6 9 Noroeste 14 Noroeste 0 -- -- 91
2018-01-03 00:00:00 11.6 7 Oeste 12 Oeste 0 -- -- 90
2018-01-02 23:00:00 11.4 5 Oeste 10 Oeste 0 -- -- 89
2018-01-02 22:00:00 11.3 4 Oeste 14 Oeste 0 -- -- 89
2018-01-02 21:00:00 11.3 10 Noroeste 14 Oeste 0 -- -- 89
2018-01-02 20:00:00 11 5 Oeste 12 Noroeste 0 -- -- 89
2018-01-02 19:00:00 11.9 8 Noroeste 16 Noroeste 0 -- -- 85
2018-01-02 18:00:00 12.4 12 Noroeste 23 Noroeste 0 -- -- 83
2018-01-02 17:00:00 12.9 17 Norte 26 Noroeste 0 -- -- 81
2018-01-02 16:00:00 13.5 16 Noroeste 24 Noroeste 0 -- -- 79
2018-01-02 15:00:00 13.8 14 Noroeste 35 Noroeste 0 -- -- 78
2018-01-02 14:00:00 13.2 19 Noroeste 33 Noroeste 0 -- -- 79
2018-01-02 13:00:00 12.6 18 Noroeste 26 Noroeste 0 -- -- 81
2018-01-02 12:00:00 11.3 15 Noroeste 23 Noroeste 0 -- -- 85
2018-01-02 11:00:00 10.1 11 Noroeste 19 Noroeste 0 -- -- 89
2018-01-02 10:00:00 7.9 9 Noroeste 14 Noroeste 0 -- -- 96
2018-01-02 09:00:00 6.3 5 Oeste 10 Noroeste 0 -- -- 98
2018-01-02 08:00:00 5.8 6 Oeste 9 Oeste 0 -- -- 98
2018-01-02 07:00:00 5.5 4 Oeste 8 Oeste 0 -- -- 99
2018-01-02 06:00:00 5.1 6 Oeste 12 Oeste 0 -- -- 98
2018-01-02 05:00:00 5.2 8 Oeste 11 Sudoeste 0 -- -- 98
2018-01-02 04:00:00 5.8 9 Oeste 11 Oeste 0 -- -- 97
2018-01-02 03:00:00 6.8 9 Oeste 13 Noroeste 0 -- -- 97
2018-01-02 02:00:00 7.1 5 Oeste 14 Noroeste 0 -- -- 95
2018-01-02 01:00:00 7.4 5 Oeste 11 Noroeste 0 -- -- 93
2018-01-02 00:00:00 7.8 4 Oeste 9 Oeste 0 -- -- 91
2018-01-01 23:00:00 8.3 5 Oeste 16 Noroeste 0 -- -- 88
2018-01-01 22:00:00 8.4 10 Noroeste 14 Noroeste 0 -- -- 88
2018-01-01 21:00:00 8.3 7 Sudoeste 12 Oeste 0 -- -- 87
2018-01-01 20:00:00 9.2 8 Sudoeste 10 Sudoeste 0 -- -- 85
2018-01-01 19:00:00 11.3 5 Oeste 14 Noroeste 0 -- -- 78
2018-01-01 18:00:00 11.6 6 Oeste 13 Noroeste 0 -- -- 77
2018-01-01 17:00:00 11.9 10 Noroeste 27 Noroeste 0 -- -- 73
2018-01-01 16:00:00 12.9 16 Noroeste 26 Noroeste 0 -- -- 65
2018-01-01 15:00:00 12.8 10 Noroeste 21 Noroeste 0 -- -- 65
2018-01-01 14:00:00 11.8 13 Noroeste 21 Noroeste 0 -- -- 70
2018-01-01 13:00:00 10.9 7 Oeste 14 Noroeste 0 -- -- 75
2018-01-01 12:00:00 9.3 4 Oeste 12 Oeste 0 -- -- 86
2018-01-01 11:00:00 6.5 7 Noroeste 17 Noroeste 0 -- -- 93
2018-01-01 10:00:00 5.2 8 Oeste 13 Noroeste 0 -- -- 96
2018-01-01 09:00:00 3.8 3 Oeste 14 Sur 0 -- -- 100
2018-01-01 08:00:00 2.9 10 Sudoeste 17 Sur 0 -- -- 100
2018-01-01 07:00:00 2.5 9 Sudeste 11 Sudeste 0 -- -- 99
2018-01-01 06:00:00 3.8 3 Sudoeste 12 Sudoeste 0 -- -- 98
2018-01-01 05:00:00 4.3 8 Sur 12 Sudoeste 0 -- -- 98
2018-01-01 04:00:00 4.9 8 Sudoeste 11 Sudoeste 0 -- -- 99
2018-01-01 03:00:00 5.3 7 Sudoeste 10 Noroeste 0 -- -- 95
2018-01-01 02:00:00 6.6 6 Oeste 10 Oeste 0 -- -- 96
2018-01-01 01:00:00 7.1 6 Oeste 15 Noroeste 0 -- -- 95
2018-01-01 00:00:00 7.5 5 Oeste 17 Oeste 0 -- -- 94
2017-12-31 23:00:00 8 9 Noroeste 17 Oeste 0 -- -- 94
2017-12-31 22:00:00 8.5 8 Oeste 19 Noroeste 0 -- -- 93
2017-12-31 21:00:00 9.2 13 Noroeste 21 Noroeste 0 -- -- 91
2017-12-31 20:00:00 9.8 14 Noroeste 19 Noroeste 0 -- -- 90
2017-12-31 19:00:00 10.6 15 Noroeste 35 Noroeste 0 -- -- 90
2017-12-31 18:00:00 11.8 20 Oeste 51 Oeste 0 -- -- 90
2017-12-31 17:00:00 12.6 38 Oeste 62 Oeste 0.4 -- -- 91
2017-12-31 16:00:00 14.5 34 Oeste 46 Sudoeste 0 -- -- 71
2017-12-31 15:00:00 14.6 23 Oeste 45 Oeste 0 -- -- 70
2017-12-31 14:00:00 14.5 31 Oeste 45 Oeste 0 -- -- 74
2017-12-31 13:00:00 13.2 20 Oeste 33 Sudoeste 0 -- -- 75
2017-12-31 12:00:00 12.6 23 Sudoeste 32 Sudoeste 0 -- -- 81
2017-12-31 11:00:00 12.4 19 Sudoeste 28 Sudoeste 0 -- -- 83
2017-12-31 10:00:00 9.7 12 Sudoeste 19 Sudoeste 0 -- -- 90
2017-12-31 09:00:00 7.4 10 Sur 13 Sur 0 -- -- 96
2017-12-31 08:00:00 8 9 Sudoeste 12 Sudoeste 0 -- -- 95
2017-12-31 07:00:00 7.9 8 Sudoeste 10 Sudoeste 0 -- -- 94
2017-12-31 06:00:00 7.6 9 Sudoeste 14 Sur 0 -- -- 95
2017-12-31 05:00:00 7.7 9 Sur 11 Sur 0 -- -- 96
2017-12-31 04:00:00 9.3 3 Sudoeste 6 Oeste 0 -- -- 90
2017-12-31 03:00:00 9.4 4 Sudoeste 7 Oeste 0 -- -- 91
2017-12-31 02:00:00 9.2 6 Oeste 9 Sudoeste 0 -- -- 91
2017-12-31 01:00:00 9.1 7 Sudoeste 9 Sudoeste 0 -- -- 90